createdAt,value
2016-06-11T00:00:42.292Z,19.46
2016-06-11T00:01:56.014Z,19.51
2016-06-11T00:02:41.939Z,19.47
2016-06-11T00:03:42.301Z,19.53
2016-06-11T00:04:56.273Z,19.53
2016-06-11T00:05:42.557Z,19.55
2016-06-11T00:06:45.841Z,19.5
2016-06-11T00:07:45.126Z,19.36
2016-06-11T00:08:42.894Z,19.38
2016-06-11T00:09:55.914Z,19.43
2016-06-11T00:10:43.072Z,19.48
2016-06-11T00:11:42.403Z,19.5
2016-06-11T00:12:43.016Z,19.38
2016-06-11T00:13:42.598Z,19.42
2016-06-11T00:14:44.116Z,19.38
2016-06-11T00:15:42.666Z,19.42
2016-06-11T00:16:42.715Z,19.4
2016-06-11T00:17:45.781Z,19.42
2016-06-11T00:18:42.488Z,19.46
2016-06-11T00:19:42.506Z,19.38
2016-06-11T00:20:42.822Z,19.38
2016-06-11T00:21:42.747Z,19.4
2016-06-11T00:22:42.001Z,19.28
2016-06-11T00:23:42.440Z,19.35
2016-06-11T00:24:42.427Z,19.32
2016-06-11T00:25:42.478Z,19.33
2016-06-11T00:26:42.450Z,19.31
2016-06-11T00:27:41.656Z,19.32
2016-06-11T00:28:41.737Z,19.25
2016-06-11T00:29:42.787Z,19.31
2016-06-11T00:30:46.103Z,19.25
2016-06-11T00:31:42.434Z,19.31
2016-06-11T00:32:42.593Z,19.25
2016-06-11T00:33:42.627Z,19.28
2016-06-11T00:34:42.662Z,19.17
2016-06-11T00:35:42.274Z,19.28
2016-06-11T00:36:42.294Z,19.29
2016-06-11T00:37:42.405Z,19.15
2016-06-11T00:38:42.206Z,19.24
2016-06-11T00:39:42.286Z,19.17
2016-06-11T00:40:42.227Z,19.2
2016-06-11T00:41:42.418Z,19.21
2016-06-11T00:42:42.546Z,19.17
2016-06-11T00:43:41.783Z,19.17
2016-06-11T00:44:41.286Z,19.18
2016-06-11T00:45:42.164Z,19.14
2016-06-11T00:46:41.652Z,19.14
2016-06-11T00:47:42.249Z,19.18
2016-06-11T00:48:41.267Z,19.14
2016-06-11T00:49:41.973Z,19.15
2016-06-11T00:50:41.977Z,19.2
2016-06-11T00:52:42.092Z,19.21
2016-06-11T00:53:41.689Z,19.17
2016-06-11T00:54:41.645Z,19.21
2016-06-11T00:55:41.539Z,19.2
2016-06-11T00:56:41.839Z,19.13
2016-06-11T00:57:42.028Z,19.13
2016-06-11T00:58:41.923Z,19.21
2016-06-11T00:59:42.332Z,19.11
2016-06-11T01:00:44.757Z,19.1
2016-06-11T01:01:41.854Z,19.13
2016-06-11T01:02:42.060Z,19.17
2016-06-11T01:03:55.063Z,19.2
2016-06-11T01:04:41.145Z,19.17
2016-06-11T01:05:41.350Z,19.15
2016-06-11T01:06:41.292Z,19.05
2016-06-11T01:07:41.372Z,19.11
2016-06-11T01:08:41.345Z,19.13
2016-06-11T01:09:41.316Z,19.14
2016-06-11T01:10:41.304Z,19.08
2016-06-11T01:11:41.338Z,19.1
2016-06-11T01:12:40.982Z,19.01
2016-06-11T01:13:44.250Z,18.99
2016-06-11T01:14:41.613Z,19.11
2016-06-11T01:15:41.569Z,19.1
2016-06-11T01:16:54.619Z,18.99
2016-06-11T01:17:42.779Z,19.13
2016-06-11T01:18:41.094Z,19.01
2016-06-11T01:19:41.425Z,19.05
2016-06-11T01:20:40.944Z,19.02
2016-06-11T01:21:41.416Z,19.05
2016-06-11T01:22:41.262Z,18.99
2016-06-11T01:23:54.656Z,19.02
2016-06-11T01:24:41.627Z,19.05
2016-06-11T01:25:41.194Z,18.97
2016-06-11T01:26:41.150Z,19.1
2016-06-11T01:27:41.231Z,19.05
2016-06-11T01:28:41.562Z,18.95
2016-06-11T01:29:43.377Z,18.99
2016-06-11T01:30:40.428Z,18.97
2016-06-11T01:31:41.180Z,18.94
2016-06-11T01:32:40.434Z,18.95
2016-06-11T01:33:40.421Z,18.91
2016-06-11T01:34:40.314Z,18.92
2016-06-11T01:35:40.318Z,18.91
2016-06-11T01:36:40.399Z,18.91
2016-06-11T01:38:40.265Z,18.87
2016-06-11T01:39:40.283Z,18.9
2016-06-11T01:40:40.036Z,18.91
2016-06-11T01:41:41.712Z,18.84
2016-06-11T01:42:40.355Z,18.83
2016-06-11T01:43:40.858Z,18.9
2016-06-11T01:44:41.518Z,18.86
2016-06-11T01:45:40.301Z,18.97
2016-06-11T01:46:40.899Z,18.87
2016-06-11T01:47:41.339Z,18.87
2016-06-11T01:48:40.404Z,18.92
2016-06-11T01:49:40.955Z,18.9
2016-06-11T01:50:40.521Z,18.91
2016-06-11T01:51:40.726Z,18.86
2016-06-11T01:52:40.730Z,18.83
2016-06-11T01:53:40.795Z,18.91
2016-06-11T01:54:40.408Z,18.86
2016-06-11T01:55:41.911Z,18.87
2016-06-11T01:56:40.398Z,18.9
2016-06-11T01:57:40.713Z,18.94
2016-06-11T01:58:40.748Z,18.95
2016-06-11T01:59:42.376Z,18.87
2016-06-11T02:00:39.708Z,18.86
2016-06-11T02:01:40.600Z,18.86
2016-06-11T02:02:40.214Z,18.84
2016-06-11T02:03:40.389Z,18.9
2016-06-11T02:04:40.157Z,18.92
2016-06-11T02:05:43.129Z,18.86
2016-06-11T02:06:40.585Z,18.87
2016-06-11T02:07:40.760Z,18.87
2016-06-11T02:08:40.560Z,18.86
2016-06-11T02:09:40.533Z,18.82
2016-06-11T02:10:40.208Z,18.84
2016-06-11T02:11:40.366Z,18.84
2016-06-11T02:12:40.729Z,18.83
2016-06-11T02:13:39.857Z,18.77
2016-06-11T02:14:40.563Z,18.8
2016-06-11T02:15:40.112Z,18.82
2016-06-11T02:16:40.601Z,18.76
2016-06-11T02:17:39.900Z,18.74
2016-06-11T02:18:40.185Z,18.76
2016-06-11T02:19:39.969Z,18.77
2016-06-11T02:20:40.316Z,18.83
2016-06-11T02:21:40.366Z,18.72
2016-06-11T02:22:39.915Z,18.74
2016-06-11T02:23:39.794Z,18.74
2016-06-11T02:24:39.703Z,18.79
2016-06-11T02:25:39.971Z,18.8
2016-06-11T02:26:39.835Z,18.77
2016-06-11T02:27:40.025Z,18.73
2016-06-11T02:28:40.246Z,18.77
2016-06-11T02:29:39.672Z,18.7
2016-06-11T02:30:39.705Z,18.76
2016-06-11T02:31:43.975Z,18.74
2016-06-11T02:32:42.165Z,18.74
2016-06-11T02:33:39.184Z,18.76
2016-06-11T02:34:38.827Z,18.77
2016-06-11T02:35:39.268Z,18.76
2016-06-11T02:36:39.818Z,18.67
2016-06-11T02:37:39.680Z,18.77
2016-06-11T02:38:39.122Z,18.67
2016-06-11T02:39:39.108Z,18.72
2016-06-11T02:40:42.377Z,18.72
2016-06-11T02:41:39.895Z,18.7
2016-06-11T02:42:39.759Z,18.72
2016-06-11T02:43:39.184Z,18.65
2016-06-11T02:44:40.062Z,18.73
2016-06-11T02:45:39.751Z,18.72
2016-06-11T02:46:39.333Z,18.7
2016-06-11T02:47:40.055Z,18.74
2016-06-11T02:48:39.245Z,18.73
2016-06-11T02:49:39.248Z,18.73
2016-06-11T02:50:39.689Z,18.68
2016-06-11T02:51:39.567Z,18.7
2016-06-11T02:52:39.430Z,18.58
2016-06-11T02:53:39.573Z,18.72
2016-06-11T02:54:38.967Z,18.61
2016-06-11T02:55:38.549Z,18.61
2016-06-11T02:56:38.567Z,18.57
2016-06-11T02:57:38.663Z,18.58
2016-06-11T02:58:39.526Z,18.59
2016-06-11T02:59:39.076Z,18.57
2016-06-11T03:00:39.486Z,18.5
2016-06-11T03:01:39.551Z,18.54
2016-06-11T03:02:39.602Z,18.65
2016-06-11T03:03:39.557Z,18.58
2016-06-11T03:04:39.419Z,18.59
2016-06-11T03:05:39.267Z,18.59
2016-06-11T03:06:39.175Z,18.57
2016-06-11T03:07:54.569Z,18.58
2016-06-11T03:08:39.370Z,18.59
2016-06-11T03:09:39.592Z,18.57
2016-06-11T03:10:39.157Z,18.5
2016-06-11T03:11:39.269Z,18.59
2016-06-11T03:12:38.990Z,18.57
2016-06-11T03:13:38.354Z,18.55
2016-06-11T03:14:38.779Z,18.62
2016-06-11T03:15:38.625Z,18.52
2016-06-11T03:16:38.456Z,18.59
2016-06-11T03:17:38.444Z,18.57
2016-06-11T03:18:38.416Z,18.57
2016-06-11T03:19:38.341Z,18.59
2016-06-11T03:20:38.453Z,18.58
2016-06-11T03:21:38.878Z,18.5
2016-06-11T03:22:52.600Z,18.58
2016-06-11T03:23:39.072Z,18.57
2016-06-11T03:24:38.105Z,18.46
2016-06-11T03:25:39.109Z,18.54
2016-06-11T03:26:38.956Z,18.57
2016-06-11T03:27:41.428Z,18.5
2016-06-11T03:28:38.353Z,18.5
2016-06-11T03:29:52.137Z,18.58
2016-06-11T03:30:41.562Z,18.5
2016-06-11T03:31:38.737Z,18.49
2016-06-11T03:32:38.990Z,18.49
2016-06-11T03:33:38.931Z,18.52
2016-06-11T03:34:38.981Z,18.52
2016-06-11T03:35:38.671Z,18.5
2016-06-11T03:36:52.378Z,18.44
2016-06-11T03:37:38.896Z,18.42
2016-06-11T03:38:39.086Z,18.44
2016-06-11T03:39:38.199Z,18.46
2016-06-11T03:40:39.937Z,18.43
2016-06-11T03:41:38.643Z,18.46
2016-06-11T03:42:52.255Z,18.5
2016-06-11T03:43:39.039Z,18.44
2016-06-11T03:44:39.339Z,18.4
2016-06-11T03:45:39.124Z,18.37
2016-06-11T03:46:42.455Z,18.39
2016-06-11T03:47:38.365Z,18.43
2016-06-11T03:48:38.399Z,18.4
2016-06-11T03:49:38.402Z,18.39
2016-06-11T03:50:38.560Z,18.43
2016-06-11T03:51:38.408Z,18.39
2016-06-11T03:52:38.067Z,18.43
2016-06-11T03:53:37.758Z,18.37
2016-06-11T03:54:37.698Z,18.42
2016-06-11T03:55:41.701Z,18.36
2016-06-11T03:56:51.564Z,18.39
2016-06-11T03:57:38.739Z,18.34
2016-06-11T03:58:38.290Z,18.39
2016-06-11T03:59:41.760Z,18.36
2016-06-11T04:00:39.138Z,18.33
2016-06-11T04:01:38.282Z,18.36
2016-06-11T04:02:39.441Z,18.36
2016-06-11T04:03:38.272Z,18.37
2016-06-11T04:04:39.244Z,18.34
2016-06-11T04:05:51.920Z,18.34
2016-06-11T04:06:38.314Z,18.36
2016-06-11T04:07:38.112Z,18.39
2016-06-11T04:09:40.182Z,18.31
2016-06-11T04:10:38.919Z,18.31
2016-06-11T04:11:38.204Z,18.36
2016-06-11T04:12:40.613Z,18.33
2016-06-11T04:13:37.850Z,18.36
2016-06-11T04:14:38.182Z,18.34
2016-06-11T04:15:54.122Z,18.39
2016-06-11T04:16:38.219Z,18.34
2016-06-11T04:17:38.160Z,18.37
2016-06-11T04:18:54.240Z,18.43
2016-06-11T04:21:38.063Z,18.39
2016-06-11T04:22:37.644Z,18.34
2016-06-11T04:23:37.897Z,18.36
2016-06-11T04:24:40.823Z,18.39
2016-06-11T04:25:50.997Z,18.34
2016-06-11T04:26:37.515Z,18.36
2016-06-11T04:27:51.503Z,18.37
2016-06-11T04:28:38.350Z,18.4
2016-06-11T04:29:40.555Z,18.33
2016-06-11T04:30:40.684Z,18.36
2016-06-11T04:32:37.612Z,18.34
2016-06-11T04:33:37.506Z,18.36
2016-06-11T04:34:37.978Z,18.39
2016-06-11T04:35:37.340Z,18.34
2016-06-11T04:37:37.127Z,18.37
2016-06-11T04:38:40.787Z,18.36
2016-06-11T04:39:40.415Z,18.39
2016-06-11T04:40:37.293Z,18.4
2016-06-11T04:41:50.843Z,18.34
2016-06-11T04:43:37.427Z,18.39
2016-06-11T04:44:37.556Z,18.44
2016-06-11T04:45:37.729Z,18.37
2016-06-11T04:47:37.361Z,18.4
2016-06-11T04:48:37.974Z,18.4
2016-06-11T04:49:50.617Z,18.37
2016-06-11T04:50:36.808Z,18.4
2016-06-11T04:51:37.623Z,18.44
2016-06-11T04:52:36.970Z,18.43
2016-06-11T04:53:37.099Z,18.44
2016-06-11T04:54:37.039Z,18.43
2016-06-11T04:55:37.339Z,18.4
2016-06-11T04:56:36.701Z,18.39
2016-06-11T04:57:36.985Z,18.4
2016-06-11T04:58:36.770Z,18.4
2016-06-11T04:59:36.977Z,18.44
2016-06-11T05:00:50.463Z,18.36
2016-06-11T05:01:37.123Z,18.34
2016-06-11T05:02:37.157Z,18.39
2016-06-11T05:03:37.957Z,18.34
2016-06-11T05:04:36.773Z,18.31
2016-06-11T05:06:42.169Z,18.37
2016-06-11T05:07:37.330Z,18.33
2016-06-11T05:08:40.035Z,18.34
2016-06-11T05:09:36.695Z,18.34
2016-06-11T05:10:36.416Z,18.28
2016-06-11T05:11:36.560Z,18.28
2016-06-11T05:12:36.282Z,18.28
2016-06-11T05:13:36.894Z,18.28
2016-06-11T05:14:36.179Z,18.28
2016-06-11T05:15:36.791Z,18.34
2016-06-11T05:16:39.716Z,18.21
2016-06-11T05:17:36.203Z,18.31
2016-06-11T05:18:37.394Z,18.28
2016-06-11T05:19:39.445Z,18.33
2016-06-11T05:20:38.588Z,18.33
2016-06-11T05:21:36.559Z,18.28
2016-06-11T05:22:36.140Z,18.31
2016-06-11T05:23:36.051Z,18.24
2016-06-11T05:24:36.053Z,18.27
2016-06-11T05:25:36.619Z,18.27
2016-06-11T05:26:38.997Z,18.33
2016-06-11T05:27:35.999Z,18.28
2016-06-11T05:28:49.425Z,18.25
2016-06-11T05:29:49.678Z,18.31
2016-06-11T05:30:36.650Z,18.34
2016-06-11T05:31:35.950Z,18.29
2016-06-11T05:32:35.421Z,18.34
2016-06-11T05:33:36.518Z,18.33
2016-06-11T05:34:36.209Z,18.25
2016-06-11T05:35:36.072Z,18.39
2016-06-11T05:36:35.730Z,18.29
2016-06-11T05:38:35.315Z,18.42
2016-06-11T05:39:35.333Z,18.36
2016-06-11T05:40:35.742Z,18.31
2016-06-11T05:41:35.387Z,18.34
2016-06-11T05:42:35.374Z,18.37
2016-06-11T05:43:35.612Z,18.36
2016-06-11T05:44:34.974Z,18.31
2016-06-11T05:45:34.915Z,18.39
2016-06-11T05:46:34.964Z,18.44
2016-06-11T05:47:34.936Z,18.4
2016-06-11T05:48:35.970Z,18.46
2016-06-11T05:49:35.943Z,18.37
2016-06-11T05:50:35.851Z,18.44
2016-06-11T05:51:35.307Z,18.37
2016-06-11T05:52:36.093Z,18.4
2016-06-11T05:53:35.768Z,18.4
2016-06-11T05:54:36.005Z,18.42
2016-06-11T05:55:36.038Z,18.43
2016-06-11T05:56:35.811Z,18.4
2016-06-11T05:57:34.777Z,18.47
2016-06-11T05:58:34.867Z,18.37
2016-06-11T05:59:34.832Z,18.4
2016-06-11T06:00:34.862Z,18.4
2016-06-11T06:01:34.929Z,18.44
2016-06-11T06:02:34.869Z,18.42
2016-06-11T06:03:49.902Z,18.43
2016-06-11T06:04:38.951Z,18.49
2016-06-11T06:05:35.500Z,18.47
2016-06-11T06:06:35.417Z,18.55
2016-06-11T06:07:35.768Z,18.47
2016-06-11T06:08:36.559Z,18.5
2016-06-11T06:09:35.864Z,18.54
2016-06-11T06:10:38.482Z,18.54
2016-06-11T06:11:38.659Z,18.46
2016-06-11T06:12:34.836Z,18.54
2016-06-11T06:13:35.294Z,18.55
2016-06-11T06:14:35.018Z,18.58
2016-06-11T06:15:35.694Z,18.62
2016-06-11T06:16:34.745Z,18.57
2016-06-11T06:17:34.640Z,18.61
2016-06-11T06:18:34.627Z,18.55
2016-06-11T06:19:34.538Z,18.59
2016-06-11T06:20:34.526Z,18.57
2016-06-11T06:21:34.530Z,18.62
2016-06-11T06:22:35.236Z,18.58
2016-06-11T06:23:35.333Z,18.57
2016-06-11T06:24:35.210Z,18.58
2016-06-11T06:25:34.995Z,18.72
2016-06-11T06:26:35.592Z,18.57
2016-06-11T06:27:34.657Z,18.61
2016-06-11T06:28:48.473Z,18.73
2016-06-11T06:29:34.632Z,18.72
2016-06-11T06:30:34.338Z,18.7
2016-06-11T06:31:34.810Z,18.59
2016-06-11T06:32:37.689Z,18.72
2016-06-11T06:33:34.644Z,18.68
2016-06-11T06:34:34.210Z,18.68
2016-06-11T06:35:34.245Z,18.72
2016-06-11T06:36:34.326Z,18.7
2016-06-11T06:37:34.172Z,18.67
2016-06-11T06:38:34.176Z,18.76
2016-06-11T06:39:34.132Z,18.65
2016-06-11T06:40:34.135Z,18.76
2016-06-11T06:41:35.138Z,18.73
2016-06-11T06:43:48.472Z,18.74
2016-06-11T06:44:35.037Z,18.73
2016-06-11T06:45:36.603Z,18.74
2016-06-11T06:46:34.966Z,18.77
2016-06-11T06:48:35.159Z,18.7
2016-06-11T06:49:33.927Z,18.77
2016-06-11T06:50:34.369Z,18.84
2016-06-11T06:51:34.841Z,18.7
2016-06-11T06:52:33.921Z,18.83
2016-06-11T06:53:34.237Z,18.83
2016-06-11T06:54:34.006Z,18.79
2016-06-11T06:55:33.821Z,18.83
2016-06-11T06:56:39.543Z,18.86
2016-06-11T06:57:35.188Z,18.86
2016-06-11T06:58:34.612Z,18.82
2016-06-11T06:59:34.396Z,18.84
2016-06-11T07:00:34.244Z,18.9
2016-06-11T07:01:48.418Z,18.77
2016-06-11T07:02:34.375Z,18.83
2016-06-11T07:03:34.017Z,18.9
2016-06-11T07:04:47.943Z,18.91
2016-06-11T07:05:34.352Z,18.94
2016-06-11T07:06:34.699Z,18.87
2016-06-11T07:07:34.546Z,18.87
2016-06-11T07:08:34.565Z,18.86
2016-06-11T07:09:34.364Z,18.82
2016-06-11T07:10:35.071Z,18.84
2016-06-11T07:11:33.464Z,18.99
2016-06-11T07:12:34.873Z,18.91
2016-06-11T07:13:34.548Z,18.95
2016-06-11T07:14:34.349Z,18.91
2016-06-11T07:15:35.445Z,18.94
2016-06-11T07:17:33.905Z,19.01
2016-06-11T07:18:33.767Z,18.99
2016-06-11T07:19:36.535Z,18.95
2016-06-11T07:20:33.945Z,18.97
2016-06-11T07:21:33.573Z,18.99
2016-06-11T07:22:33.483Z,19.02
2016-06-11T07:23:33.439Z,19.01
2016-06-11T07:24:33.442Z,19.11
2016-06-11T07:25:33.851Z,18.99
2016-06-11T07:26:47.635Z,19.13
2016-06-11T07:27:33.888Z,19.11
2016-06-11T07:28:34.439Z,19.11
2016-06-11T07:30:37.444Z,19.14
2016-06-11T07:31:34.464Z,19.13
2016-06-11T07:32:37.513Z,19.18
2016-06-11T07:33:33.829Z,19.15
2016-06-11T07:34:34.020Z,19.14
2016-06-11T07:35:33.710Z,19.17
2016-06-11T07:36:33.807Z,19.2
2016-06-11T07:37:34.279Z,19.31
2016-06-11T07:38:33.000Z,19.28
2016-06-11T07:39:32.911Z,19.25
2016-06-11T07:40:32.897Z,19.4
2016-06-11T07:41:36.994Z,19.29
2016-06-11T07:42:32.888Z,19.33
2016-06-11T07:43:32.891Z,19.36
2016-06-11T07:44:32.846Z,19.36
2016-06-11T07:45:33.897Z,19.35
2016-06-11T07:46:32.791Z,19.39
2016-06-11T07:47:33.497Z,19.47
2016-06-11T07:49:36.644Z,19.51
2016-06-11T07:50:33.584Z,19.46
2016-06-11T07:51:33.931Z,19.55
2016-06-11T07:52:34.543Z,19.54
2016-06-11T07:53:47.454Z,19.61
2016-06-11T07:54:33.878Z,19.5
2016-06-11T07:55:34.099Z,19.58
2016-06-11T07:56:47.071Z,19.6
2016-06-11T07:57:38.153Z,19.63
2016-06-11T07:58:33.344Z,19.66
2016-06-11T07:59:33.565Z,19.55
2016-06-11T08:00:33.990Z,19.65
2016-06-11T08:01:33.759Z,19.75
2016-06-11T08:02:33.496Z,19.72
2016-06-11T08:03:33.296Z,19.75
2016-06-11T08:04:39.799Z,19.75
2016-06-11T08:05:37.116Z,19.72
2016-06-11T08:06:33.477Z,19.8
2016-06-11T08:07:32.950Z,19.68
2016-06-11T08:09:32.283Z,19.72
2016-06-11T08:10:32.270Z,19.79
2016-06-11T08:11:32.290Z,19.88
2016-06-11T08:12:36.371Z,19.83
2016-06-11T08:13:46.545Z,19.87
2016-06-11T08:14:32.986Z,19.94
2016-06-11T08:15:32.286Z,19.88
2016-06-11T08:16:32.211Z,19.94
2016-06-11T08:17:33.417Z,19.87
2016-06-11T08:18:32.796Z,19.94
2016-06-11T08:19:32.939Z,20
2016-06-11T08:20:33.551Z,19.98
2016-06-11T08:21:33.539Z,19.97
2016-06-11T08:22:33.230Z,20.05
2016-06-11T08:23:32.514Z,20.06
2016-06-11T08:24:35.767Z,20.03
2016-06-11T08:25:33.317Z,20.12
2016-06-11T08:26:33.133Z,20.12
2016-06-11T08:27:32.417Z,20.16
2016-06-11T08:28:33.170Z,20.1
2016-06-11T08:29:32.595Z,20.24
2016-06-11T08:30:32.801Z,20.21
2016-06-11T08:31:33.757Z,20.2
2016-06-11T08:32:33.760Z,20.23
2016-06-11T08:33:36.076Z,20.28
2016-06-11T08:34:32.891Z,20.27
2016-06-11T08:35:32.598Z,20.21
2016-06-11T08:36:32.507Z,20.24
2016-06-11T08:37:31.947Z,20.27
2016-06-11T08:38:31.966Z,20.25
2016-06-11T08:39:36.532Z,20.24
2016-06-11T08:40:32.894Z,20.28
2016-06-11T08:41:32.210Z,20.3
2016-06-11T08:42:45.697Z,20.35
2016-06-11T08:43:32.778Z,20.38
2016-06-11T08:44:35.531Z,20.38
2016-06-11T08:45:46.519Z,20.41
2016-06-11T08:46:32.444Z,20.47
2016-06-11T08:47:31.978Z,20.41
2016-06-11T08:48:32.747Z,20.39
2016-06-11T08:49:31.906Z,20.43
2016-06-11T08:50:32.424Z,20.41
2016-06-11T08:51:33.632Z,20.49
2016-06-11T08:52:33.431Z,20.46
2016-06-11T08:54:32.609Z,20.41
2016-06-11T08:55:33.206Z,20.41
2016-06-11T08:57:32.353Z,20.54
2016-06-11T08:58:32.684Z,20.53
2016-06-11T08:59:34.469Z,20.53
2016-06-11T09:00:32.096Z,20.56
2016-06-11T09:01:31.959Z,20.58
2016-06-11T09:02:33.899Z,20.54
2016-06-11T09:03:46.355Z,20.54
2016-06-11T09:05:00.811Z,20.58
2016-06-11T09:05:45.612Z,20.61
2016-06-11T09:06:32.474Z,20.71
2016-06-11T09:07:45.930Z,20.69
2016-06-11T09:08:35.293Z,20.61
2016-06-11T09:09:33.452Z,20.65
2016-06-11T09:10:32.330Z,20.66
2016-06-11T09:11:59.005Z,20.66
2016-06-11T09:12:33.586Z,20.72
2016-06-11T09:13:45.746Z,20.68
2016-06-11T09:14:35.405Z,20.66
2016-06-11T09:15:31.986Z,20.72
2016-06-11T09:16:35.864Z,20.71
2016-06-11T09:17:33.117Z,20.74
2016-06-11T09:18:45.527Z,20.71
2016-06-11T09:19:32.530Z,20.72
2016-06-11T09:20:31.877Z,20.69
2016-06-11T09:21:32.004Z,20.69
2016-06-11T09:22:58.742Z,20.77
2016-06-11T09:23:32.480Z,20.76
2016-06-11T09:24:32.483Z,20.79
2016-06-11T09:25:32.907Z,20.84
2016-06-11T09:27:31.867Z,20.84
2016-06-11T09:28:31.792Z,20.84
2016-06-11T09:29:44.935Z,20.84
2016-06-11T09:30:32.064Z,20.84
2016-06-11T09:31:32.505Z,20.87
2016-06-11T09:32:31.586Z,20.84
2016-06-11T09:33:31.526Z,20.95
2016-06-11T09:34:45.123Z,20.96
2016-06-11T09:35:32.188Z,20.91
2016-06-11T09:36:44.957Z,21.01
2016-06-11T09:37:45.226Z,20.91
2016-06-11T09:38:45.072Z,20.93
2016-06-11T09:39:32.935Z,20.83
2016-06-11T09:40:35.329Z,20.87
2016-06-11T09:41:31.597Z,20.95
2016-06-11T09:42:48.006Z,21.01
2016-06-11T09:43:45.042Z,20.84
2016-06-11T09:44:34.920Z,20.86
2016-06-11T09:45:34.844Z,20.91
2016-06-11T09:46:45.519Z,20.98
2016-06-11T09:47:32.007Z,20.84
2016-06-11T09:48:31.571Z,21.01
2016-06-11T09:49:43.372Z,20.96
2016-06-11T09:50:31.356Z,20.96
2016-06-11T09:51:37.784Z,20.99
2016-06-11T09:52:32.022Z,21.05
2016-06-11T09:53:31.962Z,21.01
2016-06-11T09:54:31.493Z,21.04
2016-06-11T09:55:41.171Z,21.02
2016-06-11T09:57:32.225Z,21.05
2016-06-11T09:58:44.978Z,21.06
2016-06-11T10:00:32.718Z,21.13
2016-06-11T10:01:53.800Z,21.16
2016-06-11T10:02:58.053Z,21.13
2016-06-11T10:03:46.821Z,21.11
2016-06-11T10:06:11.781Z,21.11
2016-06-11T10:07:01.346Z,21.13
2016-06-11T10:08:03.505Z,21.19
2016-06-11T10:10:58.421Z,21.11
2016-06-11T10:11:58.502Z,21.11
2016-06-11T10:12:58.286Z,21.13
2016-06-11T10:13:59.554Z,21.11
2016-06-11T10:14:58.402Z,21.05
2016-06-11T10:15:58.999Z,21.14
2016-06-11T10:17:11.736Z,21.14
2016-06-11T10:18:04.083Z,21.06
2016-06-11T10:18:57.414Z,21.13
2016-06-11T10:20:03.934Z,21.08
2016-06-11T10:20:57.373Z,21.05
2016-06-11T10:21:58.361Z,21.04
2016-06-11T10:22:57.348Z,21.05
2016-06-11T10:24:00.601Z,21.13
2016-06-11T10:25:00.026Z,21.05
2016-06-11T10:26:01.076Z,21.05
2016-06-11T10:27:14.299Z,21.08
2016-06-11T10:27:57.722Z,21.16
2016-06-11T10:28:57.664Z,21.11
2016-06-11T10:30:10.916Z,21.14
2016-06-11T10:30:58.326Z,21.09
2016-06-11T10:31:58.548Z,21.13
2016-06-11T10:32:58.192Z,21.06
2016-06-11T10:34:11.492Z,21.14
2016-06-11T10:34:57.416Z,21.09
2016-06-11T10:36:00.529Z,21.14
2016-06-11T10:36:58.126Z,21.16
2016-06-11T10:37:57.628Z,21.16
2016-06-11T10:39:27.006Z,21.19
2016-06-11T10:40:10.620Z,21.21
2016-06-11T10:41:14.637Z,21.13
2016-06-11T10:42:02.641Z,21.13
2016-06-11T10:43:22.831Z,21.23
2016-06-11T10:44:10.991Z,21.17
2016-06-11T10:45:02.510Z,21.26
2016-06-11T10:46:14.935Z,21.17
2016-06-11T10:47:07.375Z,21.26
2016-06-11T10:48:04.956Z,21.21
2016-06-11T10:49:08.538Z,21.23
2016-06-11T10:50:02.525Z,21.35
2016-06-11T10:51:20.076Z,21.3
2016-06-11T10:54:23.506Z,21.45
2016-06-11T10:55:10.181Z,21.45
2016-06-11T10:56:10.419Z,21.53
2016-06-11T10:57:11.266Z,21.54
2016-06-11T10:59:14.709Z,21.69
2016-06-11T11:00:23.821Z,21.71
2016-06-11T11:02:33.421Z,21.81
2016-06-11T11:03:09.941Z,21.81
2016-06-11T11:04:23.271Z,21.85
2016-06-11T11:05:24.102Z,21.95
2016-06-11T11:06:19.669Z,21.85
2016-06-11T11:07:23.155Z,21.85
2016-06-11T11:08:09.909Z,22.04
2016-06-11T11:09:23.146Z,22.06
2016-06-11T11:10:09.852Z,22.16
2016-06-11T11:11:26.886Z,22.1
2016-06-11T11:12:10.062Z,22.12
2016-06-11T11:14:09.443Z,22.23
2016-06-11T11:15:13.586Z,22.19
2016-06-11T11:16:14.855Z,22.23
2016-06-11T11:17:23.640Z,22.29
2016-06-11T11:18:23.533Z,22.28
2016-06-11T11:20:10.649Z,22.31
2016-06-11T11:21:10.074Z,22.27
2016-06-11T11:22:22.749Z,22.37
2016-06-11T11:23:09.846Z,22.34
2016-06-11T11:24:21.411Z,22.34
2016-06-11T11:25:09.211Z,22.38
2016-06-11T11:26:22.964Z,22.35
2016-06-11T11:27:09.561Z,22.38
2016-06-11T11:28:23.595Z,22.41
2016-06-11T11:30:09.508Z,22.35
2016-06-11T11:32:09.530Z,22.46
2016-06-11T11:33:11.767Z,22.47
2016-06-11T11:34:09.473Z,22.5
2016-06-11T11:35:09.085Z,22.49
2016-06-11T11:37:25.607Z,22.57
2016-06-11T11:39:09.160Z,22.68
2016-06-11T11:44:22.222Z,22.65
2016-06-11T11:46:09.167Z,22.77
2016-06-11T11:48:22.110Z,22.67
2016-06-11T11:49:22.191Z,22.74
2016-06-11T11:50:09.381Z,22.72
2016-06-11T11:51:08.072Z,22.69
2016-06-11T11:52:07.716Z,22.72
2016-06-11T11:53:07.984Z,22.78
2016-06-11T11:54:07.675Z,22.8
2016-06-11T11:55:07.615Z,22.8
2016-06-11T11:56:07.572Z,22.86
2016-06-11T11:57:07.621Z,22.9
2016-06-11T11:58:07.593Z,22.96
2016-06-11T11:59:11.627Z,22.94
2016-06-11T12:01:07.791Z,22.96
2016-06-11T12:02:11.325Z,22.93
2016-06-11T12:03:07.765Z,23.01
2016-06-11T12:04:07.425Z,23.05
2016-06-11T12:05:07.536Z,22.94
2016-06-11T12:06:07.603Z,22.99
2016-06-11T12:08:08.952Z,23.02
2016-06-11T12:09:07.533Z,23.08
2016-06-11T12:10:11.037Z,22.92
2016-06-11T12:11:08.586Z,23.02
2016-06-11T12:12:07.652Z,23.02
2016-06-11T12:13:07.265Z,22.96
2016-06-11T12:14:07.503Z,22.99
2016-06-11T12:15:21.192Z,23.11
2016-06-11T12:16:07.274Z,23.14
2016-06-11T12:17:07.340Z,23.04
2016-06-11T12:18:07.280Z,23.14
2016-06-11T12:19:07.174Z,23.04
2016-06-11T12:20:08.208Z,23.09
2016-06-11T12:21:21.867Z,23.09
2016-06-11T12:22:09.542Z,23.08
2016-06-11T12:23:07.264Z,23.17
2016-06-11T16:16:01.382Z,24.04
2016-06-11T16:17:01.150Z,24.07
2016-06-11T16:18:01.324Z,24.07
2016-06-11T16:19:01.218Z,24.08
2016-06-11T16:20:01.128Z,24.13
2016-06-11T16:21:01.130Z,24.13
2016-06-11T16:22:01.056Z,24.07
2016-06-11T16:23:01.528Z,24.08
2016-06-11T16:24:01.046Z,24.01
2016-06-11T16:25:01.018Z,23.9
2016-06-11T16:26:01.037Z,23.9
2016-06-11T16:27:03.790Z,23.95
2016-06-11T16:28:01.027Z,24
2016-06-11T16:29:01.281Z,23.98
2016-06-11T16:30:00.940Z,24.01
2016-06-11T16:31:00.911Z,23.9
2016-06-11T16:32:00.914Z,23.92
2016-06-11T16:33:01.059Z,23.9
2016-06-11T16:34:00.874Z,23.92
2016-06-11T16:35:00.892Z,23.95
2016-06-11T16:36:00.880Z,23.94
2016-06-11T16:37:00.821Z,23.9
2016-06-11T16:38:00.871Z,23.94
2016-06-11T16:39:00.780Z,23.89
2016-06-11T16:40:00.752Z,23.95
2016-06-11T16:41:00.786Z,23.86
2016-06-11T16:42:00.789Z,23.87
2016-06-11T16:43:00.714Z,23.89
2016-06-11T16:44:00.702Z,23.95
2016-06-11T16:45:00.658Z,23.98
2016-06-11T16:46:00.646Z,23.9
2016-06-11T16:47:00.632Z,23.95
2016-06-11T16:48:01.261Z,23.98
2016-06-11T16:49:00.576Z,23.94
2016-06-11T16:50:00.595Z,24
2016-06-11T16:51:00.567Z,23.92
2016-06-11T16:52:00.570Z,23.94
2016-06-11T16:53:00.510Z,24
2016-06-11T16:54:00.513Z,23.86
2016-06-11T16:55:00.485Z,23.89
2016-06-11T16:56:00.488Z,23.89
2016-06-11T16:57:00.508Z,23.83
2016-06-11T16:58:00.478Z,23.87
2016-06-11T16:59:00.622Z,23.94
2016-06-11T17:00:00.392Z,23.87
2016-06-11T17:01:00.410Z,23.85
2016-06-11T17:02:00.382Z,23.9
2016-06-11T17:03:01.948Z,23.85
2016-06-11T17:04:00.326Z,23.77
2016-06-11T17:05:00.313Z,23.8
2016-06-11T17:06:00.300Z,23.79
2016-06-11T17:07:00.272Z,23.72
2016-06-11T17:08:00.260Z,23.64
2016-06-11T17:09:00.294Z,23.71
2016-06-11T17:10:00.235Z,23.64
2016-06-11T17:11:00.207Z,23.55
2016-06-11T17:12:00.179Z,23.52
2016-06-11T17:13:00.228Z,23.57
2016-06-11T17:14:00.137Z,23.52
2016-06-11T17:15:00.188Z,23.52
2016-06-11T17:16:00.206Z,23.46
2016-06-11T17:17:00.100Z,23.39
2016-06-11T17:18:00.384Z,23.34
2016-06-11T17:19:00.090Z,23.47
2016-06-11T17:20:00.046Z,23.34
2016-06-11T17:21:00.034Z,23.39
2016-06-11T17:22:00.053Z,23.31
2016-06-11T17:22:59.994Z,23.35
2016-06-11T17:23:59.871Z,23.23
2016-06-11T17:24:59.936Z,23.24
2016-06-11T17:25:59.939Z,23.19
2016-06-11T17:26:59.990Z,23.17
2016-06-11T17:27:59.884Z,23.17
2016-06-11T17:28:59.918Z,23.12
2016-06-11T17:29:59.843Z,23.17
2016-06-11T17:30:59.862Z,23.14